Time;durP1;ratioP1;P1;durP2;ratioP2;P2;SDS_P1;SDS_P2;PMS_P1;PMS_P2;Temp;Humidity;BMP_temperature;BMP_pressure;BME280_temperature;BME280_humidity;BME280_pressure;Samples;Min_cycle;Max_cycle;Signal;HPM_P1;HPM_P2
2022/09/30 00:00:06;;;;;;;;;;;9.40;99.90;;;;;;4986292;28;19949;-81
2022/09/30 00:02:31;;;;;;;;;;;9.30;99.90;;;;;;4985810;28;19922;-81
2022/09/30 00:04:57;;;;;;;;;;;9.30;99.90;;;;;;4985226;28;19926;-81
2022/09/30 00:07:23;;;;;;;;;;;9.30;99.90;;;;;;4984909;28;20384;-81
2022/09/30 00:09:49;;;;;;;;;;;9.30;99.90;;;;;;4985398;28;20341;-81
2022/09/30 00:12:15;;;;;;;;;;;9.30;99.90;;;;;;5001061;28;19936;-81
2022/09/30 00:14:41;;;;;;;;;;;9.30;99.90;;;;;;5000970;28;20384;-81
2022/09/30 00:17:06;;;;;;;;;;;9.20;99.90;;;;;;4985796;28;19933;-81
2022/09/30 00:19:32;;;;;;;;;;;9.20;99.90;;;;;;4983515;28;19925;-81
2022/09/30 00:21:57;;;;;;;;;;;9.20;99.90;;;;;;4986214;28;19925;-81
2022/09/30 00:24:23;;;;;;;;;;;9.30;99.90;;;;;;4985890;28;19949;-81
2022/09/30 00:26:49;;;;;;;;;;;9.20;99.90;;;;;;4985599;28;19933;-81
2022/09/30 00:29:15;;;;;;;;;;;9.20;99.90;;;;;;4967929;28;19926;-82
2022/09/30 00:31:40;;;;;;;;;;;9.20;99.90;;;;;;4985589;28;19968;-82
2022/09/30 00:34:06;;;;;;;;;;;9.20;99.90;;;;;;4984403;28;19980;-81
2022/09/30 00:36:39;;;;;;;;;;;9.20;99.90;;;;;;4984379;28;20598;-81
2022/09/30 00:39:06;;;;;;;;;;;9.20;99.90;;;;;;4985214;28;19933;-82
2022/09/30 00:41:32;;;;;;;;;;;9.20;99.90;;;;;;4985622;28;19926;-81
2022/09/30 00:43:58;;;;;;;;;;;9.10;99.90;;;;;;4988079;28;20004;-81
2022/09/30 00:46:27;;;;;;;;;;;9.10;99.90;;;;;;4988506;28;20453;-81
2022/09/30 00:48:53;;;;;;;;;;;9.20;99.90;;;;;;4988333;28;19930;-81
2022/09/30 00:51:25;;;;;;;;;;;9.20;99.90;;;;;;4989095;28;19980;-81
2022/09/30 00:53:56;;;;;;;;;;;9.20;99.90;;;;;;4988947;28;19926;-81
2022/09/30 00:56:27;;;;;;;;;;;9.10;99.90;;;;;;4989077;28;19981;-81
2022/09/30 00:58:55;;;;;;;;;;;9.10;99.90;;;;;;4988629;28;20584;-81
2022/09/30 01:01:21;;;;;;;;;;;9.10;99.90;;;;;;4989279;28;19926;-82
2022/09/30 01:03:50;;;;;;;;;;;9.10;99.90;;;;;;4987633;28;20483;-81
2022/09/30 01:06:17;;;;;;;;;;;9.10;99.90;;;;;;5004091;28;19925;-81
2022/09/30 01:11:25;;;;;;;;;;;9.00;99.90;;;;;;4986603;26;20013;-75
2022/09/30 01:13:53;;;;;;;;;;;9.00;99.90;;;;;;4988183;28;19953;-76
2022/09/30 01:16:37;;;;;;;;;;;9.00;99.90;;;;;;4988682;28;20387;-75
2022/09/30 01:19:02;;;;;;;;;;;8.90;99.90;;;;;;4986862;28;19926;-75
2022/09/30 01:21:47;;;;;;;;;;;8.90;99.90;;;;;;4988857;28;19925;-76
2022/09/30 01:24:21;;;;;;;;;;;8.90;99.90;;;;;;4972245;28;19973;-75
2022/09/30 01:27:05;;;;;;;;;;;8.80;99.90;;;;;;4988186;28;19988;-76
2022/09/30 01:29:46;;;;;;;;;;;8.80;99.90;;;;;;4987806;28;19926;-76
2022/09/30 01:32:20;;;;;;;;;;;8.80;99.90;;;;;;4988635;28;19930;-76
2022/09/30 01:34:59;;;;;;;;;;;8.80;99.90;;;;;;4987115;28;19932;-76
2022/09/30 01:37:40;;;;;;;;;;;8.70;99.90;;;;;;4988310;28;19926;-76
2022/09/30 01:40:10;;;;;;;;;;;8.70;99.90;;;;;;4988195;28;19925;-75
2022/09/30 01:42:55;;;;;;;;;;;8.80;99.90;;;;;;4987935;28;19922;-75
2022/09/30 01:45:30;;;;;;;;;;;8.70;99.90;;;;;;4988298;28;19930;-76
2022/09/30 01:48:06;;;;;;;;;;;8.70;99.90;;;;;;4988400;28;19930;-76
2022/09/30 01:50:32;;;;;;;;;;;8.70;99.90;;;;;;4987725;28;19933;-76
2022/09/30 01:53:16;;;;;;;;;;;8.70;99.90;;;;;;4986960;28;20303;-76
2022/09/30 01:55:45;;;;;;;;;;;8.70;99.90;;;;;;4986453;28;20241;-76
2022/09/30 01:58:12;;;;;;;;;;;8.70;99.90;;;;;;4987736;28;19925;-77
2022/09/30 02:00:41;;;;;;;;;;;8.70;99.90;;;;;;4987502;28;19929;-76
2022/09/30 02:03:30;;;;;;;;;;;8.70;99.90;;;;;;4986849;28;19926;-76
2022/09/30 02:06:01;;;;;;;;;;;8.80;99.90;;;;;;4987947;28;19937;-75
2022/09/30 02:08:30;;;;;;;;;;;8.80;99.90;;;;;;4987897;28;19952;-75
2022/09/30 02:11:01;;;;;;;;;;;8.80;99.90;;;;;;4987327;28;19929;-75
2022/09/30 02:13:34;;;;;;;;;;;8.80;99.90;;;;;;4987927;28;20386;-77
2022/09/30 02:16:11;;;;;;;;;;;8.80;99.90;;;;;;4987582;28;19926;-75
2022/09/30 02:18:39;;;;;;;;;;;8.80;99.90;;;;;;4986274;28;19969;-77
2022/09/30 02:21:05;;;;;;;;;;;8.80;99.90;;;;;;4987449;28;19981;-76
2022/09/30 02:23:32;;;;;;;;;;;8.70;99.90;;;;;;4986612;28;19925;-74
2022/09/30 02:26:04;;;;;;;;;;;8.80;99.90;;;;;;4987507;28;19983;-75
2022/09/30 02:28:30;;;;;;;;;;;8.70;99.90;;;;;;4986735;28;19926;-76
2022/09/30 02:30:58;;;;;;;;;;;8.70;99.90;;;;;;4987602;28;19926;-75
2022/09/30 02:33:35;;;;;;;;;;;8.60;99.90;;;;;;4986552;28;19941;-76
2022/09/30 02:36:07;;;;;;;;;;;8.60;99.90;;;;;;4985560;28;19933;-77
2022/09/30 02:38:40;;;;;;;;;;;8.70;99.90;;;;;;5001432;28;19926;-75
2022/09/30 02:41:15;;;;;;;;;;;8.70;99.90;;;;;;4986861;28;19933;-76
2022/09/30 02:43:41;;;;;;;;;;;8.60;99.90;;;;;;4985767;28;19992;-76
2022/09/30 02:46:18;;;;;;;;;;;8.60;99.90;;;;;;4986799;28;20012;-74
2022/09/30 02:48:43;;;;;;;;;;;8.60;99.90;;;;;;4985434;28;19926;-75
2022/09/30 02:51:22;;;;;;;;;;;8.60;99.90;;;;;;4987027;28;19933;-76
2022/09/30 02:53:59;;;;;;;;;;;8.60;99.90;;;;;;5001675;28;19933;-75
2022/09/30 02:56:30;;;;;;;;;;;8.50;99.90;;;;;;4987449;28;19926;-76
2022/09/30 02:58:56;;;;;;;;;;;8.50;99.90;;;;;;4986980;28;19930;-75
2022/09/30 03:01:22;;;;;;;;;;;8.50;99.90;;;;;;4986377;28;19933;-75
2022/09/30 03:03:56;;;;;;;;;;;8.50;99.90;;;;;;4985492;28;19929;-76
2022/09/30 03:06:22;;;;;;;;;;;8.50;99.90;;;;;;4986181;28;20410;-76
2022/09/30 03:08:48;;;;;;;;;;;8.40;99.90;;;;;;4986190;28;19930;-76
2022/09/30 03:11:15;;;;;;;;;;;8.40;99.90;;;;;;4986110;28;20010;-76
2022/09/30 03:13:54;;;;;;;;;;;8.40;99.90;;;;;;4986187;28;19930;-75
2022/09/30 03:16:38;;;;;;;;;;;8.40;99.90;;;;;;4986378;28;19932;-75
2022/09/30 03:19:06;;;;;;;;;;;8.40;99.90;;;;;;4985523;28;19937;-74
2022/09/30 03:21:37;;;;;;;;;;;8.40;99.90;;;;;;4985991;28;19996;-75
2022/09/30 03:24:21;;;;;;;;;;;8.40;99.90;;;;;;4984977;28;19988;-76
2022/09/30 03:27:07;;;;;;;;;;;8.30;99.90;;;;;;4985737;28;19925;-75
2022/09/30 03:29:42;;;;;;;;;;;8.30;99.90;;;;;;4985989;28;19933;-76
2022/09/30 03:32:10;;;;;;;;;;;8.20;99.90;;;;;;4984898;28;19926;-76
2022/09/30 03:34:36;;;;;;;;;;;8.20;99.90;;;;;;4984852;28;20434;-75
2022/09/30 03:37:12;;;;;;;;;;;8.10;99.90;;;;;;4985702;28;19926;-74
2022/09/30 03:39:40;;;;;;;;;;;8.10;99.90;;;;;;4985588;28;19938;-75
2022/09/30 03:42:06;;;;;;;;;;;8.10;99.90;;;;;;5001155;28;19926;-76
2022/09/30 03:44:39;;;;;;;;;;;8.00;99.90;;;;;;4985647;28;19926;-75
2022/09/30 03:47:09;;;;;;;;;;;8.00;99.90;;;;;;4984666;28;19942;-76
2022/09/30 03:49:41;;;;;;;;;;;8.00;99.90;;;;;;4984717;28;19952;-76
2022/09/30 03:52:07;;;;;;;;;;;8.00;99.90;;;;;;4985757;28;20435;-75
2022/09/30 03:54:33;;;;;;;;;;;8.00;99.90;;;;;;4985687;28;19926;-74
2022/09/30 03:57:02;;;;;;;;;;;7.90;99.90;;;;;;4985957;28;19926;-75
2022/09/30 03:59:27;;;;;;;;;;;7.90;99.90;;;;;;4984674;28;20045;-76
2022/09/30 04:01:53;;;;;;;;;;;7.90;99.90;;;;;;4985450;28;20017;-75
2022/09/30 04:04:19;;;;;;;;;;;7.80;99.90;;;;;;4984979;28;19926;-76
2022/09/30 04:06:45;;;;;;;;;;;7.80;99.90;;;;;;4985341;28;19932;-75
2022/09/30 04:09:10;;;;;;;;;;;7.70;99.90;;;;;;4985326;28;19933;-75
2022/09/30 04:11:36;;;;;;;;;;;7.70;99.90;;;;;;4984039;28;19973;-76
2022/09/30 04:14:02;;;;;;;;;;;7.70;99.90;;;;;;4985839;28;19964;-76
2022/09/30 04:16:28;;;;;;;;;;;7.70;99.90;;;;;;4985749;28;19930;-74
2022/09/30 04:18:55;;;;;;;;;;;7.70;99.90;;;;;;4986694;28;19929;-75
2022/09/30 04:21:21;;;;;;;;;;;7.60;99.90;;;;;;4989779;28;19937;-75
2022/09/30 04:23:47;;;;;;;;;;;7.70;99.90;;;;;;4989195;28;19929;-75
2022/09/30 04:26:13;;;;;;;;;;;7.70;99.90;;;;;;4989329;28;19926;-76
2022/09/30 04:28:39;;;;;;;;;;;7.70;99.90;;;;;;4989054;28;19933;-75
2022/09/30 04:31:05;;;;;;;;;;;7.60;99.90;;;;;;4989068;28;19938;-75
2022/09/30 04:33:30;;;;;;;;;;;7.60;99.90;;;;;;4988448;28;20380;-75
2022/09/30 04:35:56;;;;;;;;;;;7.60;99.90;;;;;;4989525;28;19933;-76
2022/09/30 04:38:23;;;;;;;;;;;7.60;99.90;;;;;;4989260;28;19980;-74
2022/09/30 04:40:49;;;;;;;;;;;7.70;99.90;;;;;;4988683;28;19933;-75
2022/09/30 04:43:16;;;;;;;;;;;7.60;99.90;;;;;;5004454;28;19930;-75
2022/09/30 04:45:43;;;;;;;;;;;7.60;99.90;;;;;;5004113;28;19952;-75
2022/09/30 04:48:09;;;;;;;;;;;7.60;99.90;;;;;;5003538;28;19926;-74
2022/09/30 04:50:34;;;;;;;;;;;7.60;99.90;;;;;;4987943;28;20012;-76
2022/09/30 04:53:00;;;;;;;;;;;7.60;99.90;;;;;;4987580;28;19926;-75
2022/09/30 04:55:26;;;;;;;;;;;7.60;99.90;;;;;;4990565;28;19956;-76
2022/09/30 04:57:51;;;;;;;;;;;7.60;99.90;;;;;;4986937;28;19932;-76
2022/09/30 05:00:17;;;;;;;;;;;7.60;99.90;;;;;;4989161;28;19934;-75
2022/09/30 05:02:43;;;;;;;;;;;7.60;99.90;;;;;;4989191;28;19932;-76
2022/09/30 05:05:09;;;;;;;;;;;7.60;99.90;;;;;;5000828;28;19921;-76
2022/09/30 05:07:34;;;;;;;;;;;7.60;99.90;;;;;;5016681;28;20391;-75
2022/09/30 05:10:00;;;;;;;;;;;7.60;99.90;;;;;;4996033;28;19984;-75
2022/09/30 05:12:25;;;;;;;;;;;7.50;99.90;;;;;;5001802;28;20322;-75
2022/09/30 05:14:51;;;;;;;;;;;7.50;99.90;;;;;;4997037;28;19926;-75
2022/09/30 05:17:16;;;;;;;;;;;7.50;99.90;;;;;;4987515;28;19945;-75
2022/09/30 05:19:42;;;;;;;;;;;7.40;99.90;;;;;;4988177;28;19969;-76
2022/09/30 05:22:07;;;;;;;;;;;7.40;99.90;;;;;;5003307;28;20009;-76
2022/09/30 05:24:33;;;;;;;;;;;7.40;99.90;;;;;;4987890;28;19934;-76
2022/09/30 05:26:58;;;;;;;;;;;7.40;99.90;;;;;;4989032;28;19932;-75
2022/09/30 05:29:24;;;;;;;;;;;7.40;99.90;;;;;;4998896;28;20339;-75
2022/09/30 05:31:49;;;;;;;;;;;7.40;99.90;;;;;;4989362;28;19930;-75
2022/09/30 05:34:15;;;;;;;;;;;7.30;99.90;;;;;;4987423;28;19929;-75
2022/09/30 05:36:44;;;;;;;;;;;7.40;99.90;;;;;;4994616;28;19971;-75
2022/09/30 05:39:10;;;;;;;;;;;7.30;99.90;;;;;;4981502;28;19965;-77
2022/09/30 05:41:36;;;;;;;;;;;7.30;99.90;;;;;;4985567;28;19936;-76
2022/09/30 05:44:01;;;;;;;;;;;7.40;99.90;;;;;;4986041;28;19925;-77
2022/09/30 05:46:27;;;;;;;;;;;7.40;99.90;;;;;;4985014;28;19944;-78
2022/09/30 05:48:56;;;;;;;;;;;7.50;99.90;;;;;;4993091;28;20261;-73
2022/09/30 05:51:21;;;;;;;;;;;7.60;99.90;;;;;;4986496;28;19925;-77
2022/09/30 05:53:47;;;;;;;;;;;7.60;99.90;;;;;;4985437;28;19930;-75
2022/09/30 05:56:13;;;;;;;;;;;7.60;99.90;;;;;;4986630;28;19934;-77
2022/09/30 05:58:40;;;;;;;;;;;7.60;99.90;;;;;;4985311;28;21228;-73
2022/09/30 06:01:11;;;;;;;;;;;7.60;99.90;;;;;;4986958;28;19988;-76
2022/09/30 06:03:37;;;;;;;;;;;7.60;99.90;;;;;;4985823;28;20277;-75
2022/09/30 06:06:03;;;;;;;;;;;7.50;99.90;;;;;;4988755;28;19948;-73
2022/09/30 06:08:29;;;;;;;;;;;7.50;99.90;;;;;;4985813;28;19926;-73
2022/09/30 06:10:57;;;;;;;;;;;7.40;99.90;;;;;;4984324;28;19930;-74
2022/09/30 06:13:23;;;;;;;;;;;7.30;99.90;;;;;;4981952;28;19949;-78
2022/09/30 06:15:56;;;;;;;;;;;7.40;99.90;;;;;;4984423;28;19936;-74
2022/09/30 06:18:22;;;;;;;;;;;7.30;99.90;;;;;;4984770;28;19925;-74
2022/09/30 06:20:47;;;;;;;;;;;7.30;99.90;;;;;;4984984;28;19930;-74
2022/09/30 06:23:13;;;;;;;;;;;7.30;99.90;;;;;;4984557;28;19922;-78
2022/09/30 06:25:38;;;;;;;;;;;7.40;99.90;;;;;;4984885;28;20515;-75
2022/09/30 06:28:04;;;;;;;;;;;7.40;99.90;;;;;;4986124;28;19957;-74
2022/09/30 06:30:29;;;;;;;;;;;7.40;99.90;;;;;;4985811;28;20013;-78
2022/09/30 06:32:55;;;;;;;;;;;7.40;99.90;;;;;;4983951;28;20281;-77
2022/09/30 06:35:23;;;;;;;;;;;7.40;99.90;;;;;;4985469;28;19926;-78
2022/09/30 06:37:52;;;;;;;;;;;7.50;99.90;;;;;;4983721;28;19976;-79
2022/09/30 06:40:20;;;;;;;;;;;7.50;99.90;;;;;;4984093;28;19926;-73
2022/09/30 06:42:46;;;;;;;;;;;7.50;99.90;;;;;;4984810;28;20388;-75
2022/09/30 06:45:12;;;;;;;;;;;7.50;99.90;;;;;;4985741;28;19980;-73
2022/09/30 06:47:38;;;;;;;;;;;7.50;99.90;;;;;;4999561;28;20235;-75
2022/09/30 06:50:04;;;;;;;;;;;7.40;99.90;;;;;;4985725;28;19925;-74
2022/09/30 06:52:29;;;;;;;;;;;7.50;99.90;;;;;;4985898;28;20292;-72
2022/09/30 06:54:57;;;;;;;;;;;7.60;99.90;;;;;;4986092;28;20218;-76
2022/09/30 06:57:25;;;;;;;;;;;7.60;99.90;;;;;;4985867;28;19933;-73
2022/09/30 06:59:51;;;;;;;;;;;7.60;99.90;;;;;;4985428;28;19926;-74
2022/09/30 07:02:16;;;;;;;;;;;7.70;99.90;;;;;;4984445;28;19932;-75
2022/09/30 07:04:42;;;;;;;;;;;7.70;99.90;;;;;;4985539;28;20311;-75
2022/09/30 07:07:07;;;;;;;;;;;7.70;99.90;;;;;;5000534;28;19929;-76
2022/09/30 07:09:33;;;;;;;;;;;7.80;99.90;;;;;;4983944;28;20366;-74
2022/09/30 07:11:58;;;;;;;;;;;7.90;99.90;;;;;;4985911;28;19925;-72
2022/09/30 07:14:24;;;;;;;;;;;7.90;99.90;;;;;;4985453;28;19961;-75
2022/09/30 07:16:51;;;;;;;;;;;7.90;99.90;;;;;;4984868;28;19933;-74
2022/09/30 07:19:21;;;;;;;;;;;8.00;99.90;;;;;;4984357;28;19984;-76
2022/09/30 07:21:49;;;;;;;;;;;8.00;99.90;;;;;;4984662;28;19926;-75
2022/09/30 07:24:15;;;;;;;;;;;8.10;99.90;;;;;;4985538;28;19929;-76
2022/09/30 07:26:43;;;;;;;;;;;8.10;99.90;;;;;;4983685;28;19926;-76
2022/09/30 07:29:10;;;;;;;;;;;8.20;99.90;;;;;;4983789;28;20016;-75
2022/09/30 07:31:35;;;;;;;;;;;8.30;99.90;;;;;;4984508;28;20372;-76
2022/09/30 07:34:02;;;;;;;;;;;8.40;99.90;;;;;;4966521;28;19980;-76
2022/09/30 07:36:28;;;;;;;;;;;8.40;99.90;;;;;;4966007;28;19933;-74
2022/09/30 07:38:54;;;;;;;;;;;8.50;99.90;;;;;;4964459;28;20348;-74
2022/09/30 07:41:24;;;;;;;;;;;8.60;99.90;;;;;;4980499;28;19930;-74
2022/09/30 07:43:50;;;;;;;;;;;8.60;99.90;;;;;;4976163;28;19941;-74
2022/09/30 07:46:18;;;;;;;;;;;8.70;99.90;;;;;;4984793;28;19930;-73
2022/09/30 07:48:51;;;;;;;;;;;8.70;99.90;;;;;;4983383;28;19925;-75
2022/09/30 07:51:21;;;;;;;;;;;8.80;99.90;;;;;;4984910;28;19976;-73
2022/09/30 07:54:07;;;;;;;;;;;8.90;99.90;;;;;;4984540;28;19929;-74
2022/09/30 07:56:37;;;;;;;;;;;9.00;99.90;;;;;;4984010;28;20396;-75
2022/09/30 07:59:03;;;;;;;;;;;9.10;99.90;;;;;;4984720;28;19980;-75
2022/09/30 08:01:30;;;;;;;;;;;9.10;99.90;;;;;;4985129;28;20315;-73
2022/09/30 08:03:57;;;;;;;;;;;9.20;99.90;;;;;;4983627;28;19968;-75
2022/09/30 08:06:24;;;;;;;;;;;9.40;99.90;;;;;;4984479;28;20225;-75
2022/09/30 08:08:51;;;;;;;;;;;9.50;99.90;;;;;;4984198;28;20269;-74
2022/09/30 08:11:17;;;;;;;;;;;9.60;99.90;;;;;;4984390;28;19926;-74
2022/09/30 08:13:42;;;;;;;;;;;9.70;99.90;;;;;;4984111;28;19953;-74
2022/09/30 08:16:08;;;;;;;;;;;9.80;99.90;;;;;;4984799;28;20265;-75
2022/09/30 08:18:33;;;;;;;;;;;9.90;99.90;;;;;;4983664;28;19971;-75
2022/09/30 08:21:03;;;;;;;;;;;10.00;99.90;;;;;;4984575;28;19926;-73
2022/09/30 08:23:29;;;;;;;;;;;10.00;99.90;;;;;;4984725;28;20270;-75
2022/09/30 08:26:02;;;;;;;;;;;10.10;99.90;;;;;;4984808;28;20364;-74
2022/09/30 08:28:30;;;;;;;;;;;10.20;99.90;;;;;;4984715;28;20008;-75
2022/09/30 08:31:06;;;;;;;;;;;10.20;99.90;;;;;;4983257;28;20404;-75
2022/09/30 08:33:32;;;;;;;;;;;10.20;99.90;;;;;;4981803;28;19925;-75
2022/09/30 08:36:01;;;;;;;;;;;10.30;99.90;;;;;;4983339;28;20000;-75
2022/09/30 08:38:27;;;;;;;;;;;10.30;99.90;;;;;;4983265;28;19988;-75
2022/09/30 08:41:04;;;;;;;;;;;10.30;99.90;;;;;;4983792;28;19981;-74
2022/09/30 08:43:33;;;;;;;;;;;10.40;99.90;;;;;;4983768;28;19925;-76
2022/09/30 08:46:07;;;;;;;;;;;10.40;99.90;;;;;;4967363;28;20276;-75
2022/09/30 08:49:01;;;;;;;;;;;10.60;99.90;;;;;;4983210;28;20105;-75
2022/09/30 08:51:38;;;;;;;;;;;10.60;99.90;;;;;;4983318;28;19932;-73
2022/09/30 08:54:05;;;;;;;;;;;10.70;99.90;;;;;;4983933;28;20273;-74
2022/09/30 08:56:32;;;;;;;;;;;10.80;99.90;;;;;;4984073;28;19926;-74
2022/09/30 08:59:04;;;;;;;;;;;10.80;99.90;;;;;;4984578;28;20019;-72
2022/09/30 09:01:42;;;;;;;;;;;10.80;99.90;;;;;;4982340;28;19973;-75
2022/09/30 09:04:08;;;;;;;;;;;10.90;99.90;;;;;;4984006;28;19957;-75
2022/09/30 09:06:34;;;;;;;;;;;10.90;99.90;;;;;;4987583;28;19938;-75
2022/09/30 09:09:10;;;;;;;;;;;10.90;99.90;;;;;;4987497;28;19993;-73
2022/09/30 09:11:47;;;;;;;;;;;11.00;99.90;;;;;;4985977;28;20398;-73
2022/09/30 09:14:34;;;;;;;;;;;11.10;99.90;;;;;;4986190;28;19948;-75
2022/09/30 09:17:06;;;;;;;;;;;11.10;99.90;;;;;;4985798;28;19926;-75
2022/09/30 09:19:41;;;;;;;;;;;11.20;99.90;;;;;;4986999;28;19973;-73
2022/09/30 09:22:07;;;;;;;;;;;11.20;99.90;;;;;;4987128;28;20042;-74
2022/09/30 09:24:38;;;;;;;;;;;11.30;99.90;;;;;;4986520;28;19933;-74
2022/09/30 09:27:15;;;;;;;;;;;11.40;99.90;;;;;;4987383;28;19932;-75
2022/09/30 09:29:50;;;;;;;;;;;11.50;99.90;;;;;;4987002;28;19973;-76
2022/09/30 09:32:16;;;;;;;;;;;11.60;99.90;;;;;;4986440;28;19926;-75
2022/09/30 09:34:42;;;;;;;;;;;11.70;99.90;;;;;;4986880;28;19967;-72
2022/09/30 09:38:23;;;;;;;;;;;11.70;99.90;;;;;;4985429;28;19980;-74
2022/09/30 09:40:17;;;;;;;;;;;11.70;99.90;;;;;;4985858;28;20289;-75
2022/09/30 09:42:54;;;;;;;;;;;11.80;99.90;;;;;;4987764;28;20423;-75
2022/09/30 09:45:38;;;;;;;;;;;11.90;99.90;;;;;;4987698;28;20625;-75
2022/09/30 09:48:07;;;;;;;;;;;11.80;99.90;;;;;;4985809;28;19929;-74
2022/09/30 09:50:36;;;;;;;;;;;11.90;99.90;;;;;;4969312;28;19952;-75
2022/09/30 09:53:15;;;;;;;;;;;11.90;99.90;;;;;;4985513;28;19926;-75
2022/09/30 09:55:41;;;;;;;;;;;11.90;99.90;;;;;;4984997;28;19926;-75
2022/09/30 09:58:08;;;;;;;;;;;11.90;99.90;;;;;;4986305;28;20296;-75
2022/09/30 10:03:23;;;;;;;;;;;11.90;99.90;;;;;;4985840;28;19980;-74
2022/09/30 10:06:15;;;;;;;;;;;12.00;99.90;;;;;;4986159;28;19930;-76
2022/09/30 10:08:58;;;;;;;;;;;12.10;99.90;;;;;;4984537;28;20218;-75
2022/09/30 10:11:26;;;;;;;;;;;12.20;99.90;;;;;;4986964;28;19926;-74
2022/09/30 10:13:59;;;;;;;;;;;12.30;99.90;;;;;;4986741;28;20405;-75
2022/09/30 10:16:30;;;;;;;;;;;12.40;99.90;;;;;;4986485;28;19926;-74
2022/09/30 10:18:56;;;;;;;;;;;12.50;99.90;;;;;;4985197;28;20339;-75
2022/09/30 10:21:26;;;;;;;;;;;12.60;99.90;;;;;;4986807;28;19964;-75
2022/09/30 10:23:52;;;;;;;;;;;12.60;99.90;;;;;;4985133;28;19948;-76
2022/09/30 10:26:18;;;;;;;;;;;12.60;99.90;;;;;;4984626;28;20001;-76
2022/09/30 10:28:48;;;;;;;;;;;12.60;99.90;;;;;;4986463;28;20025;-74
2022/09/30 10:31:16;;;;;;;;;;;12.70;99.90;;;;;;5004460;28;19994;-73
2022/09/30 10:33:47;;;;;;;;;;;12.70;99.90;;;;;;5020226;28;19925;-72
2022/09/30 10:36:17;;;;;;;;;;;12.70;99.90;;;;;;4991078;28;19925;-74
2022/09/30 10:38:48;;;;;;;;;;;12.80;99.90;;;;;;4986098;28;19933;-73
2022/09/30 10:41:20;;;;;;;;;;;12.80;99.90;;;;;;4986529;28;19926;-73
2022/09/30 10:43:48;;;;;;;;;;;12.80;99.90;;;;;;4984597;28;19930;-77
2022/09/30 10:46:22;;;;;;;;;;;12.80;99.90;;;;;;4985895;28;19932;-76
2022/09/30 10:48:48;;;;;;;;;;;12.90;99.90;;;;;;4981125;28;20400;-76
2022/09/30 10:51:21;;;;;;;;;;;12.90;99.90;;;;;;4985486;28;20340;-80
2022/09/30 10:53:47;;;;;;;;;;;12.90;99.90;;;;;;4984996;28;19980;-85
2022/09/30 10:56:30;;;;;;;;;;;13.00;99.90;;;;;;4984565;28;20364;-83
2022/09/30 10:58:56;;;;;;;;;;;13.10;99.90;;;;;;4983916;28;19936;-77
2022/09/30 11:01:48;;;;;;;;;;;13.10;99.90;;;;;;4985696;28;19926;-80
2022/09/30 11:04:21;;;;;;;;;;;13.20;99.90;;;;;;4998428;28;19957;-76
2022/09/30 11:06:48;;;;;;;;;;;13.20;99.90;;;;;;4984908;28;19930;-77
2022/09/30 11:09:17;;;;;;;;;;;13.20;99.90;;;;;;4996732;28;19929;-82
2022/09/30 11:11:46;;;;;;;;;;;13.30;99.90;;;;;;4983647;28;19926;-79
2022/09/30 11:14:20;;;;;;;;;;;13.30;99.90;;;;;;4984166;28;19987;-81
2022/09/30 11:16:55;;;;;;;;;;;13.40;99.90;;;;;;4983938;28;19926;-77
2022/09/30 11:19:20;;;;;;;;;;;13.30;99.90;;;;;;4999781;28;20024;-73
2022/09/30 11:21:50;;;;;;;;;;;13.40;99.90;;;;;;4984171;28;20025;-78
2022/09/30 11:24:22;;;;;;;;;;;13.40;99.90;;;;;;4985187;28;20265;-77
2022/09/30 11:26:53;;;;;;;;;;;13.40;99.90;;;;;;4979591;28;19930;-77
2022/09/30 11:29:25;;;;;;;;;;;13.40;99.90;;;;;;4983775;28;19922;-76
2022/09/30 11:31:57;;;;;;;;;;;13.40;99.90;;;;;;4982128;28;20591;-76
2022/09/30 11:34:23;;;;;;;;;;;13.40;99.90;;;;;;4984385;28;20012;-74
2022/09/30 11:36:51;;;;;;;;;;;13.40;99.90;;;;;;4983604;28;20317;-75
2022/09/30 11:39:27;;;;;;;;;;;13.50;99.90;;;;;;4984152;28;20403;-77
2022/09/30 11:42:16;;;;;;;;;;;13.50;99.90;;;;;;4984681;28;20025;-80
2022/09/30 11:44:43;;;;;;;;;;;13.50;99.90;;;;;;4963804;28;19935;-79
2022/09/30 11:47:24;;;;;;;;;;;13.60;99.90;;;;;;4963405;28;19926;-76
2022/09/30 11:49:58;;;;;;;;;;;13.60;99.90;;;;;;4974465;28;20000;-80
2022/09/30 11:52:27;;;;;;;;;;;13.70;99.90;;;;;;4984000;28;19980;-85
2022/09/30 11:54:55;;;;;;;;;;;13.70;99.90;;;;;;4984381;28;19932;-79
2022/09/30 11:57:24;;;;;;;;;;;13.70;99.90;;;;;;4984670;28;19937;-80
2022/09/30 11:59:54;;;;;;;;;;;13.80;99.90;;;;;;4983944;28;19952;-73
2022/09/30 12:02:23;;;;;;;;;;;13.70;99.90;;;;;;4984233;28;20027;-79
2022/09/30 12:04:50;;;;;;;;;;;13.70;99.90;;;;;;4984139;28;19921;-74
2022/09/30 12:07:24;;;;;;;;;;;13.70;99.90;;;;;;4984051;28;19933;-76
2022/09/30 12:09:53;;;;;;;;;;;13.70;99.90;;;;;;4982446;28;19937;-76
2022/09/30 12:12:18;;;;;;;;;;;13.70;99.90;;;;;;4983367;28;19937;-76
2022/09/30 12:14:47;;;;;;;;;;;13.70;99.90;;;;;;4984018;28;19926;-75
2022/09/30 12:17:37;;;;;;;;;;;13.80;99.90;;;;;;4981912;28;19942;-76
2022/09/30 12:20:25;;;;;;;;;;;13.80;99.90;;;;;;4982629;28;19933;-77
2022/09/30 12:22:52;;;;;;;;;;;13.90;99.90;;;;;;4982728;28;19925;-77
2022/09/30 12:25:21;;;;;;;;;;;13.90;99.90;;;;;;4983829;28;19968;-78
2022/09/30 12:27:55;;;;;;;;;;;13.90;99.90;;;;;;4984180;28;19930;-79
2022/09/30 12:30:22;;;;;;;;;;;13.90;99.90;;;;;;4983821;28;20396;-80
2022/09/30 12:33:04;;;;;;;;;;;14.00;99.90;;;;;;4981868;28;19932;-76
2022/09/30 12:35:39;;;;;;;;;;;14.00;99.90;;;;;;4982343;28;19932;-80
2022/09/30 12:38:24;;;;;;;;;;;14.10;99.90;;;;;;4984042;28;20033;-77
2022/09/30 12:40:59;;;;;;;;;;;14.10;99.90;;;;;;4984438;28;19930;-81
2022/09/30 12:43:46;;;;;;;;;;;14.10;99.90;;;;;;4971222;28;19922;-74
2022/09/30 12:46:13;;;;;;;;;;;14.10;99.90;;;;;;5003066;28;20036;-78
2022/09/30 12:48:39;;;;;;;;;;;14.20;99.90;;;;;;4986799;28;19932;-78
2022/09/30 12:51:05;;;;;;;;;;;14.20;99.90;;;;;;4987566;28;20352;-74
2022/09/30 12:53:32;;;;;;;;;;;14.20;99.90;;;;;;4988583;28;19930;-74
2022/09/30 12:56:16;;;;;;;;;;;14.20;99.90;;;;;;4993242;28;19927;-77
2022/09/30 12:58:44;;;;;;;;;;;14.20;99.90;;;;;;4985481;28;19932;-75
2022/09/30 13:01:12;;;;;;;;;;;14.20;99.90;;;;;;4987813;28;19926;-78
2022/09/30 13:03:51;;;;;;;;;;;14.20;99.90;;;;;;4986023;28;19936;-76
2022/09/30 13:06:18;;;;;;;;;;;14.20;99.90;;;;;;4987381;28;20024;-75
2022/09/30 13:09:04;;;;;;;;;;;14.20;99.90;;;;;;4986602;28;20057;-73
2022/09/30 13:11:38;;;;;;;;;;;14.20;99.90;;;;;;4999620;28;19926;-74
2022/09/30 13:14:13;;;;;;;;;;;14.30;99.90;;;;;;4987397;28;19925;-73
2022/09/30 13:17:01;;;;;;;;;;;14.30;99.90;;;;;;4993375;28;19998;-73
2022/09/30 13:19:39;;;;;;;;;;;14.30;99.90;;;;;;4973408;28;20012;-73
2022/09/30 13:22:21;;;;;;;;;;;14.30;99.90;;;;;;4985396;28;19984;-73
2022/09/30 13:24:56;;;;;;;;;;;14.30;99.90;;;;;;4986655;28;19976;-73
2022/09/30 13:27:32;;;;;;;;;;;14.30;99.90;;;;;;4985647;28;19988;-73
2022/09/30 13:29:58;;;;;;;;;;;14.30;99.90;;;;;;4981272;28;19933;-73
2022/09/30 13:32:31;;;;;;;;;;;14.30;99.90;;;;;;4990092;28;19925;-73
2022/09/30 13:34:57;;;;;;;;;;;14.30;99.90;;;;;;4969207;28;20415;-73
2022/09/30 13:37:30;;;;;;;;;;;14.30;99.90;;;;;;4989623;28;19976;-72
2022/09/30 13:39:55;;;;;;;;;;;14.30;99.90;;;;;;5004225;28;19952;-72
2022/09/30 13:42:26;;;;;;;;;;;14.30;99.90;;;;;;4986880;28;19934;-72
2022/09/30 13:45:01;;;;;;;;;;;14.30;99.90;;;;;;4986425;28;19932;-73
2022/09/30 13:47:36;;;;;;;;;;;14.30;99.90;;;;;;4985327;28;19926;-73
2022/09/30 13:50:11;;;;;;;;;;;14.30;99.90;;;;;;4976907;28;19969;-73
2022/09/30 13:52:37;;;;;;;;;;;14.30;99.90;;;;;;4988516;28;20415;-73
2022/09/30 13:55:16;;;;;;;;;;;14.30;99.90;;;;;;4989373;28;20033;-73
2022/09/30 13:58:15;;;;;;;;;;;14.30;99.90;;;;;;4984735;28;20020;-73
2022/09/30 14:00:46;;;;;;;;;;;14.30;99.90;;;;;;4963419;28;19949;-72
2022/09/30 14:03:18;;;;;;;;;;;14.30;99.90;;;;;;4983527;28;20016;-73
2022/09/30 14:06:10;;;;;;;;;;;14.30;99.90;;;;;;4984481;28;19922;-75
2022/09/30 14:08:45;;;;;;;;;;;14.30;99.90;;;;;;4972686;28;19973;-74
2022/09/30 14:11:25;;;;;;;;;;;14.30;99.90;;;;;;4982534;28;20368;-76
2022/09/30 14:14:10;;;;;;;;;;;14.30;99.90;;;;;;4985570;28;20424;-73
2022/09/30 14:16:43;;;;;;;;;;;14.30;99.90;;;;;;4976028;28;19934;-74
2022/09/30 14:19:24;;;;;;;;;;;14.30;99.90;;;;;;4985408;28;19926;-73
2022/09/30 14:21:57;;;;;;;;;;;14.30;99.90;;;;;;4986629;28;19937;-73
2022/09/30 14:24:24;;;;;;;;;;;14.30;99.90;;;;;;4989933;28;20296;-73
2022/09/30 14:26:56;;;;;;;;;;;14.30;99.90;;;;;;5005566;28;19929;-73
2022/09/30 14:29:48;;;;;;;;;;;14.30;99.90;;;;;;4995143;28;19948;-72
2022/09/30 14:32:24;;;;;;;;;;;14.30;99.90;;;;;;5016104;28;19965;-74
2022/09/30 14:34:51;;;;;;;;;;;14.30;99.90;;;;;;4986828;28;20350;-73
2022/09/30 14:37:20;;;;;;;;;;;14.40;99.90;;;;;;4986489;28;19925;-73
2022/09/30 14:39:46;;;;;;;;;;;14.40;99.90;;;;;;4986203;28;20032;-73
2022/09/30 14:42:13;;;;;;;;;;;14.40;99.90;;;;;;5005385;28;19979;-73
2022/09/30 14:44:39;;;;;;;;;;;14.40;99.90;;;;;;4987111;28;19932;-72
2022/09/30 14:47:04;;;;;;;;;;;14.40;99.90;;;;;;4984641;28;20012;-72